createdAt,value
2017-09-12T00:04:42.867Z,0
2017-09-12T00:14:56.394Z,0
2017-09-12T00:25:11.080Z,0
2017-09-12T00:35:24.253Z,0
2017-09-12T00:45:38.185Z,0
2017-09-12T00:55:51.876Z,0
2017-09-12T01:06:05.672Z,0
2017-09-12T01:16:20.594Z,0
2017-09-12T01:26:35.255Z,0
2017-09-12T01:36:49.313Z,0
2017-09-12T01:46:59.533Z,0
2017-09-12T01:57:12.825Z,0
2017-09-12T02:07:27.153Z,0
2017-09-12T02:17:41.856Z,0
2017-09-12T02:27:55.972Z,0
2017-09-12T02:38:09.486Z,0
2017-09-12T02:48:23.612Z,0
2017-09-12T02:58:38.403Z,0
2017-09-12T03:08:52.684Z,0
2017-09-12T03:19:06.915Z,0
2017-09-12T03:29:21.096Z,0
2017-09-12T03:39:35.359Z,0
2017-09-12T03:49:50.342Z,0
2017-09-12T04:00:00.595Z,0
2017-09-12T04:10:14.355Z,0
2017-09-12T04:20:29.113Z,0
2017-09-12T04:30:43.090Z,4
2017-09-12T04:40:58.165Z,20
2017-09-12T04:51:11.723Z,112
2017-09-12T05:01:25.943Z,212
2017-09-12T05:11:40.522Z,400
2017-09-12T05:21:54.446Z,756
2017-09-12T05:32:09.288Z,1708
2017-09-12T05:42:22.406Z,2048
2017-09-12T05:52:35.672Z,3036
2017-09-12T06:02:49.376Z,4220
2017-09-12T06:12:59.615Z,5560
2017-09-12T06:23:13.088Z,9412
2017-09-12T06:33:27.948Z,3288
2017-09-12T06:43:42.273Z,7660
2017-09-12T06:53:55.981Z,7724
2017-09-12T07:04:10.328Z,8904
2017-09-12T07:14:25.216Z,10936
2017-09-12T07:24:39.667Z,12192
2017-09-12T07:34:52.871Z,28224
2017-09-12T07:45:07.541Z,10328
2017-09-12T07:55:21.450Z,19520
2017-09-12T08:05:34.955Z,38144
2017-09-12T08:15:49.978Z,26336
2017-09-12T08:26:00.292Z,18720
2017-09-12T08:36:10.623Z,18592
2017-09-12T08:46:24.849Z,24448
2017-09-12T08:56:38.709Z,44448
2017-09-12T09:06:52.727Z,28896
2017-09-12T09:17:07.373Z,47456
2017-09-12T09:27:20.765Z,17088
2017-09-12T09:37:34.175Z,24448
2017-09-12T09:47:48.997Z,35872
2017-09-12T09:58:03.121Z,49728
2017-09-12T10:08:16.645Z,30752
2017-09-12T10:18:31.604Z,27168
2017-09-12T10:28:46.739Z,34240
2017-09-12T10:39:00.943Z,23616
2017-09-12T10:49:11.316Z,21088
2017-09-12T10:59:26.388Z,25760
2017-09-12T11:09:40.594Z,21856
2017-09-12T11:19:55.296Z,70240
2017-09-12T11:30:09.418Z,74080
2017-09-12T11:40:22.881Z,23072
2017-09-12T11:50:36.785Z,24800
2017-09-12T12:00:50.076Z,86784
2017-09-12T12:11:04.365Z,30912
2017-09-12T12:21:18.804Z,84480
2017-09-12T12:31:33.189Z,22144
2017-09-12T12:41:47.334Z,27584
2017-09-12T12:52:02.472Z,77888
2017-09-12T13:02:12.836Z,18784
2017-09-12T13:12:23.200Z,57984
2017-09-12T13:22:38.215Z,69792
2017-09-12T13:32:51.526Z,9744
2017-09-12T13:43:04.899Z,7272
2017-09-12T13:53:19.301Z,24032
2017-09-12T14:03:34.012Z,21888
2017-09-12T14:13:47.467Z,39456
2017-09-12T14:24:02.269Z,48352
2017-09-12T14:34:16.743Z,56800
2017-09-12T14:44:31.408Z,55264
2017-09-12T14:54:45.478Z,52448
2017-09-12T15:04:59.322Z,45184
2017-09-12T15:15:14.505Z,16652
2017-09-12T15:25:24.845Z,4076
2017-09-12T15:35:38.323Z,26432
2017-09-12T15:45:52.581Z,23168
2017-09-12T15:56:07.679Z,17728
2017-09-12T16:06:21.720Z,13964
2017-09-12T16:16:36.138Z,12636
2017-09-12T16:26:49.338Z,12256
2017-09-12T16:37:04.382Z,8268
2017-09-12T16:47:18.406Z,5712
2017-09-12T16:57:32.998Z,5220
2017-09-12T17:07:46.274Z,4372
2017-09-12T17:18:00.221Z,3400
2017-09-12T17:28:14.965Z,2376
2017-09-12T17:38:25.227Z,1260
2017-09-12T17:48:38.876Z,508
2017-09-12T17:58:52.986Z,156
2017-09-12T18:09:08.041Z,36
2017-09-12T18:19:21.377Z,4
2017-09-12T18:29:35.906Z,0
2017-09-12T18:39:50.058Z,0
2017-09-12T18:50:03.309Z,0
2017-09-12T19:00:17.753Z,0
2017-09-12T19:10:31.602Z,0
2017-09-12T19:20:45.577Z,0
2017-09-12T19:30:59.733Z,0
2017-09-12T19:41:13.381Z,0
2017-09-12T19:51:23.613Z,0
2017-09-12T20:01:36.757Z,0
2017-09-12T20:11:50.220Z,0
2017-09-12T20:22:04.328Z,0
2017-09-12T20:32:18.324Z,0
2017-09-12T20:42:31.698Z,0
2017-09-12T20:52:44.895Z,0
2017-09-12T21:02:59.787Z,0
2017-09-12T21:13:13.825Z,0
2017-09-12T21:23:27.433Z,0
2017-09-12T21:33:41.914Z,0
2017-09-12T21:43:55.999Z,0
2017-09-12T21:54:10.864Z,0
2017-09-12T22:04:21.134Z,0
2017-09-12T22:14:36.114Z,0
2017-09-12T22:24:49.430Z,0
2017-09-12T22:35:04.038Z,0
2017-09-12T22:45:18.726Z,0
2017-09-12T22:55:32.045Z,0
2017-09-12T23:05:46.557Z,0
2017-09-12T23:16:00.963Z,0
2017-09-12T23:26:14.143Z,0
2017-09-12T23:36:28.378Z,0
2017-09-12T23:46:41.494Z,0
2017-09-12T23:56:56.353Z,0
